createdAt,value
2022-11-19T00:02:03.715Z,29.33
2022-11-19T00:04:32.196Z,27.30
2022-11-19T00:07:00.405Z,27.23
2022-11-19T00:09:28.624Z,28.25
2022-11-19T00:12:15.316Z,24.02
2022-11-19T00:14:43.493Z,26.70
2022-11-19T00:17:11.605Z,26.23
2022-11-19T00:19:39.769Z,26.05
2022-11-19T00:22:07.951Z,27.80
2022-11-19T00:24:36.131Z,26.20
2022-11-19T00:27:04.334Z,24.42
2022-11-19T00:29:32.649Z,26.10
2022-11-19T00:32:00.762Z,25.92
2022-11-19T00:34:28.895Z,26.77
2022-11-19T00:36:57.052Z,28.77
2022-11-19T00:39:25.250Z,27.80
2022-11-19T00:41:53.440Z,27.65
2022-11-19T00:44:21.549Z,27.90
2022-11-19T00:46:49.759Z,29.25
2022-11-19T00:49:18.356Z,28.55
2022-11-19T00:51:46.842Z,30.27
2022-11-19T00:54:15.078Z,29.45
2022-11-19T00:56:43.309Z,30.02
2022-11-19T00:59:11.543Z,29.15
2022-11-19T01:01:42.162Z,29.85
2022-11-19T01:04:10.395Z,29.83
2022-11-19T01:06:38.689Z,30.52
2022-11-19T01:09:06.922Z,30.75
2022-11-19T01:11:37.426Z,30.08
2022-11-19T01:14:06.992Z,29.83
2022-11-19T01:16:37.597Z,29.70
2022-11-19T01:19:08.218Z,28.80
2022-11-19T01:21:37.890Z,28.95
2022-11-19T01:24:06.882Z,28.45
2022-11-19T01:26:35.049Z,29.52
2022-11-19T01:29:03.312Z,28.60
2022-11-19T01:31:31.609Z,28.30
2022-11-19T01:34:00.244Z,29.25
2022-11-19T01:36:30.203Z,28.33
2022-11-19T01:38:58.938Z,27.58
2022-11-19T01:41:32.706Z,29.35
2022-11-19T01:44:06.852Z,26.35
2022-11-19T01:46:37.741Z,28.55
2022-11-19T01:49:19.153Z,28.25
2022-11-19T01:52:02.635Z,24.83
2022-11-19T01:54:46.194Z,23.00
2022-11-19T01:59:48.704Z,23.75
2022-11-19T02:02:19.922Z,24.10
2022-11-19T02:04:54.719Z,25.00
2022-11-19T02:07:29.110Z,22.45
2022-11-19T02:10:02.700Z,21.90
2022-11-19T02:13:05.442Z,23.27
2022-11-19T02:15:57.812Z,24.73
2022-11-19T02:18:40.078Z,23.75
2022-11-19T02:21:37.673Z,24.33
2022-11-19T02:24:20.712Z,23.08
2022-11-19T02:27:01.526Z,23.50
2022-11-19T02:29:43.992Z,21.60
2022-11-19T02:32:18.274Z,22.52
2022-11-19T02:35:03.229Z,21.95
2022-11-19T02:37:42.613Z,22.52
2022-11-19T02:40:37.011Z,21.50
2022-11-19T02:43:24.423Z,20.35
2022-11-19T02:46:04.154Z,21.45
2022-11-19T02:48:38.920Z,20.23
2022-11-19T02:51:09.125Z,21.17
2022-11-19T02:53:37.269Z,21.13
2022-11-19T02:56:35.662Z,19.67
2022-11-19T02:59:23.020Z,19.38
2022-11-19T03:02:10.526Z,20.83
2022-11-19T03:04:38.689Z,18.77
2022-11-19T03:07:13.663Z,20.63
2022-11-19T03:09:54.250Z,19.15
2022-11-19T03:12:44.573Z,20.58
2022-11-19T03:15:56.287Z,19.35
2022-11-19T03:18:35.371Z,18.73
2022-11-19T03:21:26.697Z,17.73
2022-11-19T03:23:58.361Z,18.75
2022-11-19T03:26:34.101Z,17.67
2022-11-19T03:29:06.111Z,20.58
2022-11-19T03:31:36.280Z,20.98
2022-11-19T03:34:12.047Z,19.05
2022-11-19T03:36:42.192Z,18.83
2022-11-19T03:39:15.371Z,17.65
2022-11-19T03:41:46.814Z,17.70
2022-11-19T03:44:28.842Z,18.45
2022-11-19T03:47:08.034Z,20.58
2022-11-19T03:49:41.280Z,18.65
2022-11-19T03:52:13.653Z,18.00
2022-11-19T03:54:42.722Z,19.30
2022-11-19T03:57:17.175Z,19.80
2022-11-19T03:59:46.933Z,17.98
2022-11-19T04:02:16.171Z,17.10
2022-11-19T04:04:44.354Z,17.85
2022-11-19T04:07:21.975Z,17.63
2022-11-19T04:09:50.525Z,17.23
2022-11-19T04:12:21.369Z,17.88
2022-11-19T04:14:49.762Z,17.35
2022-11-19T04:17:18.970Z,16.85
2022-11-19T04:19:47.831Z,17.58
2022-11-19T04:22:15.989Z,17.85
2022-11-19T04:24:44.175Z,17.88
2022-11-19T04:27:12.336Z,16.50
2022-11-19T04:29:40.499Z,16.73
2022-11-19T04:32:08.638Z,16.83
2022-11-19T04:34:36.938Z,16.75
2022-11-19T04:37:05.162Z,16.08
2022-11-19T04:39:33.415Z,16.27
2022-11-19T04:42:01.723Z,17.50
2022-11-19T04:44:29.983Z,16.23
2022-11-19T04:46:58.246Z,16.55
2022-11-19T04:49:26.686Z,16.15
2022-11-19T04:51:54.779Z,16.10
2022-11-19T04:54:22.947Z,15.88
2022-11-19T04:56:51.148Z,16.35
2022-11-19T04:59:19.630Z,15.85
2022-11-19T05:01:49.439Z,14.85
2022-11-19T05:04:17.614Z,16.70
2022-11-19T05:06:45.801Z,16.48
2022-11-19T05:09:13.959Z,14.82
2022-11-19T05:11:42.132Z,16.13
2022-11-19T05:14:10.347Z,14.27
2022-11-19T05:16:38.486Z,15.20
2022-11-19T05:19:06.767Z,14.82
2022-11-19T05:21:34.932Z,15.88
2022-11-19T05:24:03.164Z,15.82
2022-11-19T05:26:31.365Z,15.68
2022-11-19T05:28:59.535Z,14.90
2022-11-19T05:31:27.710Z,14.52
2022-11-19T05:33:55.890Z,16.40
2022-11-19T05:36:24.081Z,13.90
2022-11-19T05:38:52.248Z,15.00
2022-11-19T05:41:20.422Z,14.43
2022-11-19T05:43:48.658Z,15.23
2022-11-19T05:46:16.871Z,13.65
2022-11-19T05:48:44.963Z,13.95
2022-11-19T05:51:17.031Z,13.15
2022-11-19T05:56:14.413Z,13.23
2022-11-19T05:58:42.567Z,11.98
2022-11-19T06:01:10.732Z,13.40
2022-11-19T06:03:38.919Z,12.90
2022-11-19T06:06:07.430Z,13.30
2022-11-19T06:08:35.604Z,13.38
2022-11-19T06:11:04.615Z,12.13
2022-11-19T06:13:32.774Z,12.32
2022-11-19T06:16:00.875Z,13.10
2022-11-19T06:18:29.070Z,13.18
2022-11-19T06:20:57.240Z,13.98
2022-11-19T06:23:25.401Z,12.50
2022-11-19T06:25:55.026Z,13.68
2022-11-19T06:28:23.152Z,13.38
2022-11-19T06:30:51.291Z,14.75
2022-11-19T06:33:19.443Z,11.93
2022-11-19T06:35:50.137Z,11.32
2022-11-19T06:38:19.222Z,12.30
2022-11-19T06:40:50.458Z,12.48
2022-11-19T06:43:18.658Z,11.40
2022-11-19T06:45:46.727Z,10.95
2022-11-19T06:48:14.927Z,12.25
2022-11-19T06:50:44.919Z,11.63
2022-11-19T06:53:13.379Z,10.95
2022-11-19T06:55:44.098Z,10.95
2022-11-19T06:58:14.513Z,12.60
2022-11-19T07:00:45.638Z,11.52
2022-11-19T07:03:13.745Z,10.32
2022-11-19T07:05:42.095Z,10.55
2022-11-19T07:08:10.309Z,12.23
2022-11-19T07:10:38.473Z,10.30
2022-11-19T07:13:06.770Z,10.23
2022-11-19T07:15:35.172Z,10.52
2022-11-19T07:18:03.353Z,9.57
2022-11-19T07:20:31.577Z,11.00
2022-11-19T07:22:59.935Z,10.63
2022-11-19T07:25:28.797Z,11.15
2022-11-19T07:27:57.259Z,10.68
2022-11-19T07:30:25.454Z,9.73
2022-11-19T07:32:54.575Z,11.07
2022-11-19T07:35:22.828Z,10.52
2022-11-19T07:37:53.028Z,11.13
2022-11-19T07:40:21.183Z,10.48
2022-11-19T07:42:49.334Z,10.20
2022-11-19T07:45:18.999Z,11.63
2022-11-19T07:47:47.400Z,12.07
2022-11-19T07:50:17.140Z,11.23
2022-11-19T07:52:45.316Z,13.27
2022-11-19T07:55:13.515Z,12.07
2022-11-19T07:57:41.736Z,11.63
2022-11-19T08:00:10.644Z,10.93
2022-11-19T08:02:42.410Z,10.68
2022-11-19T08:05:10.723Z,10.70
2022-11-19T08:07:39.434Z,12.07
2022-11-19T08:10:08.370Z,10.27
2022-11-19T08:12:36.999Z,10.02
2022-11-19T08:15:05.575Z,10.15
2022-11-19T08:17:52.319Z,9.02
2022-11-19T08:20:20.478Z,9.00
2022-11-19T08:22:51.688Z,10.13
2022-11-19T08:25:19.902Z,10.07
2022-11-19T08:27:48.037Z,10.45
2022-11-19T08:30:16.378Z,8.57
2022-11-19T08:32:44.610Z,9.23
2022-11-19T08:35:12.798Z,8.68
2022-11-19T08:37:40.978Z,7.85
2022-11-19T08:40:09.703Z,7.55
2022-11-19T08:42:56.279Z,7.93
2022-11-19T08:45:26.855Z,8.27
2022-11-19T08:47:56.093Z,7.70
2022-11-19T08:50:25.114Z,8.98
2022-11-19T08:53:00.932Z,8.23
2022-11-19T08:55:30.460Z,12.40
2022-11-19T08:58:03.948Z,8.40
2022-11-19T09:00:34.148Z,9.10
2022-11-19T09:03:02.434Z,9.07
2022-11-19T09:05:30.551Z,9.10
2022-11-19T09:07:58.714Z,9.63
2022-11-19T09:10:26.983Z,9.38
2022-11-19T09:12:55.159Z,9.65
2022-11-19T09:15:23.423Z,11.55
2022-11-19T09:17:51.898Z,11.15
2022-11-19T09:20:20.186Z,10.15
2022-11-19T09:22:48.383Z,9.43
2022-11-19T09:25:16.629Z,9.90
2022-11-19T09:27:44.836Z,9.93
2022-11-19T09:30:13.722Z,9.82
2022-11-19T09:32:41.977Z,9.50
2022-11-19T09:35:10.175Z,10.48
2022-11-19T09:37:38.299Z,11.90
2022-11-19T09:40:08.425Z,11.75
2022-11-19T09:42:58.304Z,10.73
2022-11-19T09:45:59.255Z,10.85
2022-11-19T09:48:33.807Z,10.60
2022-11-19T09:51:23.912Z,11.65
2022-11-19T09:53:57.062Z,10.68
2022-11-19T09:59:39.750Z,9.85
2022-11-19T10:02:19.820Z,10.27
2022-11-19T10:04:50.815Z,13.20
2022-11-19T10:07:40.139Z,12.27
2022-11-19T10:10:35.109Z,11.88
2022-11-19T10:13:43.515Z,11.00
2022-11-19T10:16:20.535Z,10.18
2022-11-19T10:19:00.925Z,9.52
2022-11-19T10:21:57.628Z,9.45
2022-11-19T10:24:54.275Z,8.65
2022-11-19T10:27:36.745Z,9.20
2022-11-19T10:30:14.243Z,11.27
2022-11-19T10:32:53.237Z,10.70
2022-11-19T10:35:30.281Z,10.45
2022-11-19T10:38:00.006Z,10.25
2022-11-19T10:40:39.611Z,10.63
2022-11-19T10:43:19.464Z,9.75
2022-11-19T10:45:51.472Z,9.85
2022-11-19T10:48:25.110Z,10.02
2022-11-19T10:50:55.935Z,11.73
2022-11-19T10:53:36.387Z,9.60
2022-11-19T10:56:17.601Z,9.73
2022-11-19T10:58:52.688Z,10.07
2022-11-19T11:01:33.301Z,9.15
2022-11-19T11:04:14.618Z,9.50
2022-11-19T11:06:55.075Z,9.85
2022-11-19T11:09:56.049Z,9.68
2022-11-19T11:12:45.048Z,9.77
2022-11-19T11:15:24.053Z,11.63
2022-11-19T11:18:08.087Z,10.73
2022-11-19T11:20:38.565Z,10.85
2022-11-19T11:23:09.713Z,10.68
2022-11-19T11:25:40.238Z,11.20
2022-11-19T11:28:12.724Z,11.27
2022-11-19T11:30:53.786Z,11.37
2022-11-19T11:33:28.044Z,11.52
2022-11-19T11:36:02.758Z,12.02
2022-11-19T11:38:31.799Z,12.82
2022-11-19T11:44:20.157Z,12.60
2022-11-19T11:46:58.653Z,12.47
2022-11-19T11:49:35.177Z,10.90
2022-11-19T11:52:15.912Z,10.88
2022-11-19T11:55:03.177Z,11.02
2022-11-19T11:57:36.662Z,11.73
2022-11-19T12:00:30.836Z,12.18
2022-11-19T12:03:11.482Z,14.48
2022-11-19T12:05:57.668Z,11.45
2022-11-19T12:09:15.396Z,12.52
2022-11-19T12:11:58.190Z,12.48
2022-11-19T12:14:48.216Z,12.63
2022-11-19T12:17:28.830Z,12.35
2022-11-19T12:20:17.329Z,12.82
2022-11-19T12:23:07.378Z,12.25
2022-11-19T12:25:45.281Z,13.85
2022-11-19T12:28:38.333Z,13.18
2022-11-19T12:31:29.683Z,12.73
2022-11-19T12:34:36.621Z,13.27
2022-11-19T12:37:40.922Z,13.73
2022-11-19T12:40:42.085Z,13.20
2022-11-19T12:43:29.141Z,13.98
2022-11-19T12:46:16.195Z,14.15
2022-11-19T12:49:04.235Z,14.18
2022-11-19T12:51:35.245Z,13.93
2022-11-19T12:54:36.603Z,13.45
2022-11-19T12:57:34.467Z,14.20
2022-11-19T13:00:18.900Z,13.60
2022-11-19T13:03:12.296Z,13.75
2022-11-19T13:06:01.477Z,13.77
2022-11-19T13:08:38.122Z,13.82
2022-11-19T13:11:12.130Z,14.48
2022-11-19T13:13:45.932Z,14.68
2022-11-19T13:16:18.168Z,17.75
2022-11-19T13:18:53.322Z,15.25
2022-11-19T13:21:35.293Z,14.60
2022-11-19T13:24:34.026Z,13.48
2022-11-19T13:27:07.050Z,13.02
2022-11-19T13:29:47.011Z,14.10
2022-11-19T13:32:24.391Z,12.90
2022-11-19T13:34:58.647Z,13.40
2022-11-19T13:37:38.623Z,13.32
2022-11-19T13:40:29.251Z,14.65
2022-11-19T13:43:31.608Z,13.52
2022-11-19T13:46:31.530Z,14.27
2022-11-19T13:49:17.942Z,12.60
2022-11-19T13:51:52.450Z,14.13
2022-11-19T13:54:41.343Z,13.38
2022-11-19T13:57:23.964Z,12.93
2022-11-19T14:00:08.105Z,12.75
2022-11-19T14:02:42.423Z,13.48
2022-11-19T14:05:28.823Z,13.43
2022-11-19T14:08:24.995Z,12.82
2022-11-19T14:11:08.260Z,15.00
2022-11-19T14:13:51.731Z,14.65
2022-11-19T14:17:04.275Z,14.52
2022-11-19T14:20:08.188Z,14.02
2022-11-19T14:22:59.726Z,14.52
2022-11-19T14:26:03.223Z,15.10
2022-11-19T14:28:41.589Z,15.80
2022-11-19T14:31:09.943Z,16.40
2022-11-19T14:33:58.571Z,15.82
2022-11-19T14:36:47.581Z,15.35
2022-11-19T14:39:26.866Z,16.08
2022-11-19T14:42:17.828Z,15.45
2022-11-19T14:45:04.379Z,14.15
2022-11-19T14:47:39.860Z,14.98
2022-11-19T14:50:21.054Z,14.50
2022-11-19T14:52:54.883Z,15.13
2022-11-19T14:55:31.330Z,16.38
2022-11-19T14:58:18.132Z,17.33
2022-11-19T15:00:46.431Z,16.30
2022-11-19T15:03:24.077Z,15.88
2022-11-19T15:05:53.141Z,15.18
2022-11-19T15:08:23.991Z,16.17
2022-11-19T15:11:02.190Z,17.42
2022-11-19T15:13:32.759Z,16.92
2022-11-19T15:16:07.835Z,15.57
2022-11-19T15:18:42.329Z,17.55
2022-11-19T15:21:19.144Z,15.98
2022-11-19T15:23:59.407Z,16.25
2022-11-19T15:26:46.230Z,16.33
2022-11-19T15:29:52.103Z,16.25
2022-11-19T15:32:23.294Z,17.20
2022-11-19T15:35:12.890Z,16.85
2022-11-19T15:37:57.873Z,20.73
2022-11-19T15:40:29.879Z,20.00
2022-11-19T15:43:11.874Z,19.25
2022-11-19T15:45:47.691Z,18.80
2022-11-19T15:48:31.034Z,16.65
2022-11-19T15:51:00.732Z,16.05
2022-11-19T15:53:29.501Z,15.27
2022-11-19T15:56:07.524Z,15.02
2022-11-19T15:58:45.575Z,12.27
2022-11-19T16:01:21.726Z,11.13
2022-11-19T16:03:52.922Z,8.93
2022-11-19T16:06:29.111Z,9.77
2022-11-19T16:09:00.921Z,9.38
2022-11-19T16:11:51.724Z,8.55
2022-11-19T16:14:48.000Z,8.55
2022-11-19T16:17:34.937Z,9.00
2022-11-19T16:20:09.566Z,9.00
2022-11-19T16:22:48.061Z,9.20
2022-11-19T16:25:28.111Z,8.52
2022-11-19T16:27:59.124Z,8.93
2022-11-19T16:30:31.215Z,8.32
2022-11-19T16:33:00.537Z,8.63
2022-11-19T16:35:31.410Z,8.13
2022-11-19T16:38:01.476Z,7.78
2022-11-19T16:40:50.297Z,8.35
2022-11-19T16:43:20.168Z,8.65
2022-11-19T16:45:49.224Z,8.43
2022-11-19T16:48:42.643Z,8.45
2022-11-19T16:51:36.200Z,8.25
2022-11-19T16:54:07.097Z,7.95
2022-11-19T16:56:47.673Z,6.93
2022-11-19T16:59:21.742Z,7.47
2022-11-19T17:01:56.616Z,7.78
2022-11-19T17:04:29.634Z,9.55
2022-11-19T17:06:59.109Z,10.65
2022-11-19T17:09:42.348Z,9.80
2022-11-19T17:12:33.860Z,11.23
2022-11-19T17:15:39.367Z,11.07
2022-11-19T17:18:13.416Z,11.05
2022-11-19T17:20:44.398Z,11.38
2022-11-19T17:23:24.593Z,10.95
2022-11-19T17:25:57.246Z,10.85
2022-11-19T17:28:36.102Z,10.93
2022-11-19T17:31:19.559Z,9.85
2022-11-19T17:34:15.160Z,10.70
2022-11-19T17:36:43.820Z,11.57
2022-11-19T17:39:13.268Z,10.52
2022-11-19T17:42:01.910Z,13.30
2022-11-19T17:44:36.503Z,12.55
2022-11-19T17:47:21.696Z,14.13
2022-11-19T17:49:51.830Z,14.82
2022-11-19T17:52:29.116Z,14.75
2022-11-19T17:55:19.885Z,15.00
2022-11-19T17:57:48.108Z,13.18
2022-11-19T18:00:16.999Z,15.80
2022-11-19T18:02:48.685Z,13.93
2022-11-19T18:05:20.966Z,13.73
2022-11-19T18:07:49.138Z,13.70
2022-11-19T18:10:17.491Z,20.50
2022-11-19T18:12:46.175Z,19.60
2022-11-19T18:15:18.620Z,20.08
2022-11-19T18:17:47.232Z,19.30
2022-11-19T18:20:15.785Z,16.45
2022-11-19T18:22:43.896Z,15.68
2022-11-19T18:25:21.867Z,15.07
2022-11-19T18:27:50.244Z,15.25
2022-11-19T18:30:18.494Z,15.18
2022-11-19T18:32:46.731Z,15.70
2022-11-19T18:35:18.450Z,14.65
2022-11-19T18:37:47.050Z,16.23
2022-11-19T18:40:16.126Z,14.85
2022-11-19T18:43:03.137Z,13.88
2022-11-19T18:45:32.003Z,14.50
2022-11-19T18:48:00.285Z,15.05
2022-11-19T18:50:30.293Z,14.35
2022-11-19T18:52:58.750Z,14.70
2022-11-19T18:55:26.997Z,15.18
2022-11-19T18:57:57.232Z,13.80
2022-11-19T19:00:25.399Z,15.63
2022-11-19T19:02:53.574Z,15.43
2022-11-19T19:05:22.080Z,16.83
2022-11-19T19:07:50.268Z,14.98
2022-11-19T19:10:18.580Z,15.15
2022-11-19T19:12:46.797Z,14.25
2022-11-19T19:15:15.440Z,14.07
2022-11-19T19:17:43.586Z,12.90
2022-11-19T19:20:12.439Z,14.32
2022-11-19T19:22:40.623Z,14.48
2022-11-19T19:25:09.249Z,13.77
2022-11-19T19:27:37.526Z,13.77
2022-11-19T19:30:06.390Z,15.15
2022-11-19T19:32:34.597Z,15.75
2022-11-19T19:35:02.791Z,16.15
2022-11-19T19:37:30.991Z,15.27
2022-11-19T19:40:00.250Z,14.77
2022-11-19T19:42:30.269Z,15.70
2022-11-19T19:44:58.614Z,14.32
2022-11-19T19:47:26.849Z,15.18
2022-11-19T19:49:55.211Z,13.75
2022-11-19T19:52:23.379Z,14.82
2022-11-19T19:54:51.674Z,14.10
2022-11-19T19:57:19.809Z,15.40
2022-11-19T19:59:48.058Z,15.40
2022-11-19T20:02:16.284Z,14.98
2022-11-19T20:04:44.487Z,14.73
2022-11-19T20:07:12.834Z,13.65
2022-11-19T20:09:40.984Z,14.93
2022-11-19T20:12:09.212Z,14.57
2022-11-19T20:14:37.501Z,15.48
2022-11-19T20:17:05.691Z,16.30
2022-11-19T20:19:33.923Z,15.25
2022-11-19T20:22:02.079Z,15.57
2022-11-19T20:24:30.358Z,14.18
2022-11-19T20:26:58.672Z,14.50
2022-11-19T20:29:26.830Z,15.45
2022-11-19T20:31:54.959Z,13.98
2022-11-19T20:34:23.118Z,13.85
2022-11-19T20:36:51.238Z,14.27
2022-11-19T20:39:19.811Z,15.18
2022-11-19T20:42:06.931Z,15.27
2022-11-19T20:44:35.099Z,15.50
2022-11-19T20:47:04.359Z,16.17
2022-11-19T20:49:40.714Z,14.77
2022-11-19T20:52:10.764Z,17.55
2022-11-19T20:54:39.132Z,15.43
2022-11-19T20:57:07.534Z,14.73
2022-11-19T20:59:35.719Z,14.25
2022-11-19T21:02:04.307Z,13.45
2022-11-19T21:04:36.543Z,13.90
2022-11-19T21:07:05.613Z,14.48
2022-11-19T21:09:33.971Z,14.75
2022-11-19T21:12:02.111Z,12.75
2022-11-19T21:14:30.412Z,11.63
2022-11-19T21:16:58.799Z,11.57
2022-11-19T21:19:26.953Z,13.60
2022-11-19T21:21:55.244Z,11.80
2022-11-19T21:24:23.527Z,12.88
2022-11-19T21:26:52.084Z,11.70
2022-11-19T21:29:20.515Z,12.75
2022-11-19T21:31:49.205Z,12.15
2022-11-19T21:34:20.378Z,11.23
2022-11-19T21:36:49.492Z,13.88
2022-11-19T21:39:20.112Z,10.35
2022-11-19T21:41:48.565Z,9.65
2022-11-19T21:44:20.994Z,9.32
2022-11-19T21:46:49.861Z,8.30
2022-11-19T21:49:18.585Z,8.50
2022-11-19T21:51:50.602Z,7.50
2022-11-19T21:54:19.009Z,8.45
2022-11-19T21:56:47.417Z,8.10
2022-11-19T21:59:15.534Z,7.75
2022-11-19T22:01:43.892Z,8.15
2022-11-19T22:04:15.450Z,7.90
2022-11-19T22:06:43.639Z,7.93
2022-11-19T22:09:11.795Z,7.10
2022-11-19T22:11:39.865Z,6.50
2022-11-19T22:14:10.555Z,7.00
2022-11-19T22:16:42.515Z,7.43
2022-11-19T22:19:12.212Z,8.02
2022-11-19T22:21:40.800Z,7.47
2022-11-19T22:24:08.967Z,8.60
2022-11-19T22:26:37.123Z,8.88
2022-11-19T22:29:05.271Z,7.82
2022-11-19T22:31:33.431Z,8.32
2022-11-19T22:34:01.711Z,8.10
2022-11-19T22:36:31.570Z,9.43
2022-11-19T22:38:59.823Z,6.85
2022-11-19T22:41:27.898Z,7.20
2022-11-19T22:43:56.223Z,7.65
2022-11-19T22:46:24.716Z,6.72
2022-11-19T22:48:53.279Z,7.28
2022-11-19T22:51:24.158Z,6.78
2022-11-19T22:53:53.809Z,6.97
2022-11-19T22:56:27.531Z,5.63
2022-11-19T22:58:57.003Z,6.30
2022-11-19T23:01:31.376Z,6.45
2022-11-19T23:04:02.071Z,5.72
2022-11-19T23:06:30.340Z,6.63
2022-11-19T23:08:58.611Z,7.70
2022-11-19T23:11:45.276Z,7.68
2022-11-19T23:14:15.634Z,7.80
2022-11-19T23:16:44.408Z,8.93
2022-11-19T23:19:14.015Z,8.93
2022-11-19T23:21:42.257Z,9.30
2022-11-19T23:24:10.846Z,10.10
2022-11-19T23:26:40.686Z,8.95
2022-11-19T23:29:10.143Z,10.82
2022-11-19T23:31:39.470Z,9.50
2022-11-19T23:34:08.413Z,9.18
2022-11-19T23:36:39.259Z,8.40
2022-11-19T23:39:10.376Z,7.00
2022-11-19T23:41:38.633Z,8.30
2022-11-19T23:44:07.614Z,7.47
2022-11-19T23:46:36.504Z,7.82
2022-11-19T23:49:05.959Z,7.15
2022-11-19T23:51:38.785Z,6.03
2022-11-19T23:54:07.675Z,6.55
2022-11-19T23:56:37.745Z,5.78
2022-11-19T23:59:06.795Z,4.80
